sensor_id;sensor_type;location;lat;lon;timestamp;P1;durP1;ratioP1;P2;durP2;ratioP2
11481;SDS011;5797;51.662;6.748;2023-04-06T00:00:05;10.77;;;5.80;;
11481;SDS011;5797;51.662;6.748;2023-04-06T00:02:35;8.03;;;5.47;;
11481;SDS011;5797;51.662;6.748;2023-04-06T00:05:04;10.70;;;6.23;;
11481;SDS011;5797;51.662;6.748;2023-04-06T00:07:35;10.17;;;5.67;;
11481;SDS011;5797;51.662;6.748;2023-04-06T00:10:03;9.80;;;5.10;;
11481;SDS011;5797;51.662;6.748;2023-04-06T00:12:32;11.13;;;5.40;;
11481;SDS011;5797;51.662;6.748;2023-04-06T00:15:01;7.03;;;5.27;;
11481;SDS011;5797;51.662;6.748;2023-04-06T00:17:32;11.27;;;5.30;;
11481;SDS011;5797;51.662;6.748;2023-04-06T00:20:01;9.90;;;5.90;;
11481;SDS011;5797;51.662;6.748;2023-04-06T00:22:29;11.53;;;5.40;;
11481;SDS011;5797;51.662;6.748;2023-04-06T00:24:59;10.33;;;6.33;;
11481;SDS011;5797;51.662;6.748;2023-04-06T00:27:28;9.00;;;6.03;;
11481;SDS011;5797;51.662;6.748;2023-04-06T00:29:56;9.97;;;5.83;;
11481;SDS011;5797;51.662;6.748;2023-04-06T00:32:24;8.43;;;5.60;;
11481;SDS011;5797;51.662;6.748;2023-04-06T00:34:53;9.93;;;5.53;;
11481;SDS011;5797;51.662;6.748;2023-04-06T00:37:21;10.03;;;5.30;;
11481;SDS011;5797;51.662;6.748;2023-04-06T00:39:50;12.47;;;6.43;;
11481;SDS011;5797;51.662;6.748;2023-04-06T00:42:21;9.67;;;5.97;;
11481;SDS011;5797;51.662;6.748;2023-04-06T00:44:52;9.73;;;5.80;;
11481;SDS011;5797;51.662;6.748;2023-04-06T00:47:21;11.07;;;5.83;;
11481;SDS011;5797;51.662;6.748;2023-04-06T00:49:49;8.87;;;5.73;;
11481;SDS011;5797;51.662;6.748;2023-04-06T00:52:18;12.90;;;6.67;;
11481;SDS011;5797;51.662;6.748;2023-04-06T00:54:48;11.17;;;5.97;;
11481;SDS011;5797;51.662;6.748;2023-04-06T00:57:20;8.63;;;5.73;;
11481;SDS011;5797;51.662;6.748;2023-04-06T00:59:54;11.00;;;6.23;;
11481;SDS011;5797;51.662;6.748;2023-04-06T01:02:23;9.70;;;5.90;;
11481;SDS011;5797;51.662;6.748;2023-04-06T01:04:53;11.83;;;6.03;;
11481;SDS011;5797;51.662;6.748;2023-04-06T01:07:27;13.30;;;6.20;;
11481;SDS011;5797;51.662;6.748;2023-04-06T01:10:05;10.53;;;6.33;;
11481;SDS011;5797;51.662;6.748;2023-04-06T01:12:37;10.83;;;5.73;;
11481;SDS011;5797;51.662;6.748;2023-04-06T01:15:12;10.47;;;6.23;;
11481;SDS011;5797;51.662;6.748;2023-04-06T01:17:43;14.17;;;5.73;;
11481;SDS011;5797;51.662;6.748;2023-04-06T01:20:15;10.63;;;5.67;;
11481;SDS011;5797;51.662;6.748;2023-04-06T01:22:45;9.83;;;5.43;;
11481;SDS011;5797;51.662;6.748;2023-04-06T01:25:13;9.83;;;5.87;;
11481;SDS011;5797;51.662;6.748;2023-04-06T01:28:04;12.13;;;6.67;;
11481;SDS011;5797;51.662;6.748;2023-04-06T01:30:52;10.47;;;5.67;;
11481;SDS011;5797;51.662;6.748;2023-04-06T01:33:41;12.13;;;6.23;;
11481;SDS011;5797;51.662;6.748;2023-04-06T01:36:13;11.80;;;6.07;;
11481;SDS011;5797;51.662;6.748;2023-04-06T01:38:46;9.87;;;6.00;;
11481;SDS011;5797;51.662;6.748;2023-04-06T01:41:17;15.27;;;6.07;;
11481;SDS011;5797;51.662;6.748;2023-04-06T01:43:50;12.93;;;5.67;;
11481;SDS011;5797;51.662;6.748;2023-04-06T01:46:24;12.20;;;6.17;;
11481;SDS011;5797;51.662;6.748;2023-04-06T01:48:53;8.63;;;5.40;;
11481;SDS011;5797;51.662;6.748;2023-04-06T01:51:34;10.97;;;5.90;;
11481;SDS011;5797;51.662;6.748;2023-04-06T01:54:07;17.97;;;6.43;;
11481;SDS011;5797;51.662;6.748;2023-04-06T01:56:46;10.57;;;5.73;;
11481;SDS011;5797;51.662;6.748;2023-04-06T01:59:36;10.87;;;5.73;;
11481;SDS011;5797;51.662;6.748;2023-04-06T02:02:11;11.47;;;6.17;;
11481;SDS011;5797;51.662;6.748;2023-04-06T02:04:48;10.00;;;6.10;;
11481;SDS011;5797;51.662;6.748;2023-04-06T02:07:17;10.73;;;6.03;;
11481;SDS011;5797;51.662;6.748;2023-04-06T02:09:47;10.03;;;5.57;;
11481;SDS011;5797;51.662;6.748;2023-04-06T02:12:24;11.73;;;5.60;;
11481;SDS011;5797;51.662;6.748;2023-04-06T02:14:54;9.97;;;5.57;;
11481;SDS011;5797;51.662;6.748;2023-04-06T02:17:22;10.43;;;6.10;;
11481;SDS011;5797;51.662;6.748;2023-04-06T02:19:50;15.77;;;5.83;;
11481;SDS011;5797;51.662;6.748;2023-04-06T02:22:19;16.50;;;5.93;;
11481;SDS011;5797;51.662;6.748;2023-04-06T02:24:48;14.27;;;6.10;;
11481;SDS011;5797;51.662;6.748;2023-04-06T02:27:17;13.20;;;6.33;;
11481;SDS011;5797;51.662;6.748;2023-04-06T02:29:46;12.77;;;6.00;;
11481;SDS011;5797;51.662;6.748;2023-04-06T02:32:19;13.10;;;6.17;;
11481;SDS011;5797;51.662;6.748;2023-04-06T02:34:48;9.90;;;5.70;;
11481;SDS011;5797;51.662;6.748;2023-04-06T02:37:19;8.30;;;5.33;;
11481;SDS011;5797;51.662;6.748;2023-04-06T02:39:49;13.77;;;6.47;;
11481;SDS011;5797;51.662;6.748;2023-04-06T02:42:17;12.63;;;6.00;;
11481;SDS011;5797;51.662;6.748;2023-04-06T02:44:48;9.93;;;5.73;;
11481;SDS011;5797;51.662;6.748;2023-04-06T02:47:19;11.77;;;5.83;;
11481;SDS011;5797;51.662;6.748;2023-04-06T02:49:50;11.70;;;6.43;;
11481;SDS011;5797;51.662;6.748;2023-04-06T02:52:19;11.57;;;6.07;;
11481;SDS011;5797;51.662;6.748;2023-04-06T02:54:48;11.13;;;5.73;;
11481;SDS011;5797;51.662;6.748;2023-04-06T02:57:23;12.17;;;6.07;;
11481;SDS011;5797;51.662;6.748;2023-04-06T02:59:52;12.73;;;6.57;;
11481;SDS011;5797;51.662;6.748;2023-04-06T03:02:28;12.47;;;6.40;;
11481;SDS011;5797;51.662;6.748;2023-04-06T03:05:04;11.67;;;6.20;;
11481;SDS011;5797;51.662;6.748;2023-04-06T03:07:37;12.43;;;6.07;;
11481;SDS011;5797;51.662;6.748;2023-04-06T03:10:13;12.33;;;6.57;;
11481;SDS011;5797;51.662;6.748;2023-04-06T03:12:44;13.40;;;5.93;;
11481;SDS011;5797;51.662;6.748;2023-04-06T03:15:18;15.20;;;7.00;;
11481;SDS011;5797;51.662;6.748;2023-04-06T03:17:52;12.10;;;6.47;;
11481;SDS011;5797;51.662;6.748;2023-04-06T03:20:40;11.23;;;6.67;;
11481;SDS011;5797;51.662;6.748;2023-04-06T03:23:10;13.33;;;7.43;;
11481;SDS011;5797;51.662;6.748;2023-04-06T03:25:42;13.13;;;7.67;;
11481;SDS011;5797;51.662;6.748;2023-04-06T03:28:15;14.20;;;7.77;;
11481;SDS011;5797;51.662;6.748;2023-04-06T03:30:56;12.63;;;7.20;;
11481;SDS011;5797;51.662;6.748;2023-04-06T03:33:40;14.03;;;8.17;;
11481;SDS011;5797;51.662;6.748;2023-04-06T03:36:13;15.30;;;7.43;;
11481;SDS011;5797;51.662;6.748;2023-04-06T03:38:43;10.93;;;7.20;;
11481;SDS011;5797;51.662;6.748;2023-04-06T03:41:14;13.10;;;7.57;;
11481;SDS011;5797;51.662;6.748;2023-04-06T03:43:51;15.13;;;6.87;;
11481;SDS011;5797;51.662;6.748;2023-04-06T03:46:19;14.40;;;7.57;;
11481;SDS011;5797;51.662;6.748;2023-04-06T03:48:51;15.90;;;8.90;;
11481;SDS011;5797;51.662;6.748;2023-04-06T03:51:23;13.67;;;6.80;;
11481;SDS011;5797;51.662;6.748;2023-04-06T03:53:51;12.50;;;7.30;;
11481;SDS011;5797;51.662;6.748;2023-04-06T03:56:21;14.07;;;7.80;;
11481;SDS011;5797;51.662;6.748;2023-04-06T03:58:50;14.10;;;7.27;;
11481;SDS011;5797;51.662;6.748;2023-04-06T04:01:20;12.03;;;7.20;;
11481;SDS011;5797;51.662;6.748;2023-04-06T04:03:48;14.07;;;7.30;;
11481;SDS011;5797;51.662;6.748;2023-04-06T04:06:18;13.63;;;6.90;;
11481;SDS011;5797;51.662;6.748;2023-04-06T04:08:46;14.40;;;7.50;;
11481;SDS011;5797;51.662;6.748;2023-04-06T04:11:16;15.27;;;7.53;;
11481;SDS011;5797;51.662;6.748;2023-04-06T04:13:51;10.90;;;7.50;;
11481;SDS011;5797;51.662;6.748;2023-04-06T04:16:19;12.47;;;7.43;;
11481;SDS011;5797;51.662;6.748;2023-04-06T04:18:47;12.93;;;7.70;;
11481;SDS011;5797;51.662;6.748;2023-04-06T04:21:16;12.50;;;7.17;;
11481;SDS011;5797;51.662;6.748;2023-04-06T04:23:44;11.70;;;7.30;;
11481;SDS011;5797;51.662;6.748;2023-04-06T04:26:13;16.33;;;8.27;;
11481;SDS011;5797;51.662;6.748;2023-04-06T04:28:45;13.87;;;7.33;;
11481;SDS011;5797;51.662;6.748;2023-04-06T04:31:15;13.53;;;7.17;;
11481;SDS011;5797;51.662;6.748;2023-04-06T04:33:48;20.67;;;7.60;;
11481;SDS011;5797;51.662;6.748;2023-04-06T04:36:24;13.30;;;7.07;;
11481;SDS011;5797;51.662;6.748;2023-04-06T04:38:55;12.17;;;7.13;;
11481;SDS011;5797;51.662;6.748;2023-04-06T04:41:24;13.97;;;6.87;;
11481;SDS011;5797;51.662;6.748;2023-04-06T04:43:53;11.27;;;7.07;;
11481;SDS011;5797;51.662;6.748;2023-04-06T04:46:25;13.10;;;7.67;;
11481;SDS011;5797;51.662;6.748;2023-04-06T04:48:54;16.53;;;7.70;;
11481;SDS011;5797;51.662;6.748;2023-04-06T04:51:23;16.73;;;7.30;;
11481;SDS011;5797;51.662;6.748;2023-04-06T04:54:15;17.57;;;7.63;;
11481;SDS011;5797;51.662;6.748;2023-04-06T04:56:44;16.03;;;7.63;;
11481;SDS011;5797;51.662;6.748;2023-04-06T04:59:22;11.97;;;7.20;;
11481;SDS011;5797;51.662;6.748;2023-04-06T05:02:04;13.97;;;6.90;;
11481;SDS011;5797;51.662;6.748;2023-04-06T05:04:41;16.67;;;8.23;;
11481;SDS011;5797;51.662;6.748;2023-04-06T05:07:16;14.73;;;7.57;;
11481;SDS011;5797;51.662;6.748;2023-04-06T05:09:45;13.63;;;7.70;;
11481;SDS011;5797;51.662;6.748;2023-04-06T05:12:14;13.23;;;7.33;;
11481;SDS011;5797;51.662;6.748;2023-04-06T05:15:02;16.13;;;8.33;;
11481;SDS011;5797;51.662;6.748;2023-04-06T05:17:32;13.27;;;7.67;;
11481;SDS011;5797;51.662;6.748;2023-04-06T05:20:02;13.00;;;6.97;;
11481;SDS011;5797;51.662;6.748;2023-04-06T05:22:36;12.93;;;6.90;;
11481;SDS011;5797;51.662;6.748;2023-04-06T05:25:08;14.17;;;7.47;;
11481;SDS011;5797;51.662;6.748;2023-04-06T05:27:38;16.93;;;8.13;;
11481;SDS011;5797;51.662;6.748;2023-04-06T05:30:16;14.67;;;7.90;;
11481;SDS011;5797;51.662;6.748;2023-04-06T05:32:48;15.97;;;8.07;;
11481;SDS011;5797;51.662;6.748;2023-04-06T05:35:20;16.00;;;7.63;;
11481;SDS011;5797;51.662;6.748;2023-04-06T05:37:52;12.10;;;6.93;;
11481;SDS011;5797;51.662;6.748;2023-04-06T05:40:24;14.77;;;7.80;;
11481;SDS011;5797;51.662;6.748;2023-04-06T05:42:53;12.23;;;7.20;;
11481;SDS011;5797;51.662;6.748;2023-04-06T05:45:22;16.90;;;8.77;;
11481;SDS011;5797;51.662;6.748;2023-04-06T05:47:56;18.30;;;7.67;;
11481;SDS011;5797;51.662;6.748;2023-04-06T05:50:28;14.63;;;7.80;;
11481;SDS011;5797;51.662;6.748;2023-04-06T05:52:57;14.83;;;8.00;;
11481;SDS011;5797;51.662;6.748;2023-04-06T05:55:31;13.20;;;7.00;;
11481;SDS011;5797;51.662;6.748;2023-04-06T05:58:18;14.53;;;7.43;;
11481;SDS011;5797;51.662;6.748;2023-04-06T06:00:49;14.47;;;7.70;;
11481;SDS011;5797;51.662;6.748;2023-04-06T06:03:21;12.77;;;7.77;;
11481;SDS011;5797;51.662;6.748;2023-04-06T06:05:53;16.57;;;8.00;;
11481;SDS011;5797;51.662;6.748;2023-04-06T06:08:29;12.83;;;7.27;;
11481;SDS011;5797;51.662;6.748;2023-04-06T06:11:01;23.03;;;8.17;;
11481;SDS011;5797;51.662;6.748;2023-04-06T06:13:30;11.33;;;7.20;;
11481;SDS011;5797;51.662;6.748;2023-04-06T06:16:00;17.37;;;8.40;;
11481;SDS011;5797;51.662;6.748;2023-04-06T06:18:35;14.57;;;8.13;;
11481;SDS011;5797;51.662;6.748;2023-04-06T06:21:04;16.57;;;7.60;;
11481;SDS011;5797;51.662;6.748;2023-04-06T06:23:33;14.53;;;7.63;;
11481;SDS011;5797;51.662;6.748;2023-04-06T06:26:01;15.70;;;7.77;;
11481;SDS011;5797;51.662;6.748;2023-04-06T06:28:30;15.67;;;8.27;;
11481;SDS011;5797;51.662;6.748;2023-04-06T06:30:59;15.03;;;7.47;;
11481;SDS011;5797;51.662;6.748;2023-04-06T06:33:29;16.43;;;8.83;;
11481;SDS011;5797;51.662;6.748;2023-04-06T06:36:00;17.90;;;9.77;;
11481;SDS011;5797;51.662;6.748;2023-04-06T06:38:29;15.13;;;8.23;;
11481;SDS011;5797;51.662;6.748;2023-04-06T06:40:58;16.23;;;7.77;;
11481;SDS011;5797;51.662;6.748;2023-04-06T06:43:30;18.13;;;8.47;;
11481;SDS011;5797;51.662;6.748;2023-04-06T06:46:01;14.10;;;8.17;;
11481;SDS011;5797;51.662;6.748;2023-04-06T06:48:30;15.30;;;8.67;;
11481;SDS011;5797;51.662;6.748;2023-04-06T06:50:59;17.43;;;8.77;;
11481;SDS011;5797;51.662;6.748;2023-04-06T06:53:28;14.43;;;8.53;;
11481;SDS011;5797;51.662;6.748;2023-04-06T06:55:56;16.43;;;9.20;;
11481;SDS011;5797;51.662;6.748;2023-04-06T06:58:25;18.40;;;9.80;;
11481;SDS011;5797;51.662;6.748;2023-04-06T07:00:55;21.33;;;9.83;;
11481;SDS011;5797;51.662;6.748;2023-04-06T07:03:25;17.67;;;10.20;;
11481;SDS011;5797;51.662;6.748;2023-04-06T07:05:54;19.90;;;10.53;;
11481;SDS011;5797;51.662;6.748;2023-04-06T07:08:26;16.40;;;8.93;;
11481;SDS011;5797;51.662;6.748;2023-04-06T07:10:54;18.90;;;9.93;;
11481;SDS011;5797;51.662;6.748;2023-04-06T07:13:23;20.20;;;10.63;;
11481;SDS011;5797;51.662;6.748;2023-04-06T07:15:56;21.73;;;11.00;;
11481;SDS011;5797;51.662;6.748;2023-04-06T07:18:24;18.53;;;10.03;;
11481;SDS011;5797;51.662;6.748;2023-04-06T07:20:53;20.83;;;11.37;;
11481;SDS011;5797;51.662;6.748;2023-04-06T07:23:21;22.73;;;10.50;;
11481;SDS011;5797;51.662;6.748;2023-04-06T07:25:51;18.17;;;10.27;;
11481;SDS011;5797;51.662;6.748;2023-04-06T07:28:21;22.20;;;10.30;;
11481;SDS011;5797;51.662;6.748;2023-04-06T07:30:50;18.80;;;10.37;;
11481;SDS011;5797;51.662;6.748;2023-04-06T07:33:18;22.20;;;10.13;;
11481;SDS011;5797;51.662;6.748;2023-04-06T07:35:47;20.10;;;10.87;;
11481;SDS011;5797;51.662;6.748;2023-04-06T07:38:15;15.77;;;9.20;;
11481;SDS011;5797;51.662;6.748;2023-04-06T07:40:44;17.07;;;8.60;;
11481;SDS011;5797;51.662;6.748;2023-04-06T07:43:14;15.83;;;9.37;;
11481;SDS011;5797;51.662;6.748;2023-04-06T07:45:43;20.50;;;8.77;;
11481;SDS011;5797;51.662;6.748;2023-04-06T07:48:12;19.30;;;8.47;;
11481;SDS011;5797;51.662;6.748;2023-04-06T07:50:41;18.10;;;8.70;;
11481;SDS011;5797;51.662;6.748;2023-04-06T07:53:09;20.13;;;9.40;;
11481;SDS011;5797;51.662;6.748;2023-04-06T07:55:38;15.77;;;9.13;;
11481;SDS011;5797;51.662;6.748;2023-04-06T07:58:07;16.53;;;9.07;;
11481;SDS011;5797;51.662;6.748;2023-04-06T08:00:37;18.03;;;9.30;;
11481;SDS011;5797;51.662;6.748;2023-04-06T08:03:05;17.30;;;8.60;;
11481;SDS011;5797;51.662;6.748;2023-04-06T08:05:34;15.27;;;7.93;;
11481;SDS011;5797;51.662;6.748;2023-04-06T08:08:02;18.23;;;9.07;;
11481;SDS011;5797;51.662;6.748;2023-04-06T08:10:30;29.87;;;9.27;;
11481;SDS011;5797;51.662;6.748;2023-04-06T08:13:01;15.80;;;8.37;;
11481;SDS011;5797;51.662;6.748;2023-04-06T08:15:29;14.63;;;8.10;;
11481;SDS011;5797;51.662;6.748;2023-04-06T08:17:59;16.73;;;9.43;;
11481;SDS011;5797;51.662;6.748;2023-04-06T08:20:28;18.77;;;9.00;;
11481;SDS011;5797;51.662;6.748;2023-04-06T08:22:56;19.77;;;9.23;;
11481;SDS011;5797;51.662;6.748;2023-04-06T08:25:24;16.03;;;8.60;;
11481;SDS011;5797;51.662;6.748;2023-04-06T08:27:53;17.93;;;9.33;;
11481;SDS011;5797;51.662;6.748;2023-04-06T08:30:21;24.97;;;9.50;;
11481;SDS011;5797;51.662;6.748;2023-04-06T08:32:50;18.43;;;9.50;;
11481;SDS011;5797;51.662;6.748;2023-04-06T08:35:20;18.60;;;10.40;;
11481;SDS011;5797;51.662;6.748;2023-04-06T08:37:48;18.77;;;9.40;;
11481;SDS011;5797;51.662;6.748;2023-04-06T08:40:17;22.10;;;10.33;;
11481;SDS011;5797;51.662;6.748;2023-04-06T08:42:48;16.07;;;8.80;;
11481;SDS011;5797;51.662;6.748;2023-04-06T08:45:18;17.93;;;9.70;;
11481;SDS011;5797;51.662;6.748;2023-04-06T08:47:48;15.27;;;9.43;;
11481;SDS011;5797;51.662;6.748;2023-04-06T08:50:18;16.90;;;9.00;;
11481;SDS011;5797;51.662;6.748;2023-04-06T08:52:48;18.80;;;10.10;;
11481;SDS011;5797;51.662;6.748;2023-04-06T08:55:17;16.83;;;10.03;;
11481;SDS011;5797;51.662;6.748;2023-04-06T08:57:45;13.90;;;8.93;;
11481;SDS011;5797;51.662;6.748;2023-04-06T09:00:15;17.17;;;9.93;;
11481;SDS011;5797;51.662;6.748;2023-04-06T09:02:45;23.33;;;9.67;;
11481;SDS011;5797;51.662;6.748;2023-04-06T09:05:13;15.10;;;9.57;;
11481;SDS011;5797;51.662;6.748;2023-04-06T09:07:44;15.67;;;9.30;;
11481;SDS011;5797;51.662;6.748;2023-04-06T09:10:13;19.13;;;10.33;;
11481;SDS011;5797;51.662;6.748;2023-04-06T09:12:42;18.10;;;10.07;;
11481;SDS011;5797;51.662;6.748;2023-04-06T09:15:17;21.33;;;9.93;;
11481;SDS011;5797;51.662;6.748;2023-04-06T09:17:48;17.07;;;10.43;;
11481;SDS011;5797;51.662;6.748;2023-04-06T09:20:22;18.03;;;9.57;;
11481;SDS011;5797;51.662;6.748;2023-04-06T09:22:54;21.40;;;9.73;;
11481;SDS011;5797;51.662;6.748;2023-04-06T09:25:23;19.03;;;9.73;;
11481;SDS011;5797;51.662;6.748;2023-04-06T09:27:59;21.00;;;10.77;;
11481;SDS011;5797;51.662;6.748;2023-04-06T09:30:29;16.83;;;9.93;;
11481;SDS011;5797;51.662;6.748;2023-04-06T09:32:58;18.60;;;10.50;;
11481;SDS011;5797;51.662;6.748;2023-04-06T09:35:27;21.03;;;10.80;;
11481;SDS011;5797;51.662;6.748;2023-04-06T09:37:58;17.70;;;10.73;;
11481;SDS011;5797;51.662;6.748;2023-04-06T09:40:27;18.70;;;10.50;;
11481;SDS011;5797;51.662;6.748;2023-04-06T09:42:55;19.00;;;10.50;;
11481;SDS011;5797;51.662;6.748;2023-04-06T09:45:26;19.00;;;10.10;;
11481;SDS011;5797;51.662;6.748;2023-04-06T09:47:55;19.57;;;10.27;;
11481;SDS011;5797;51.662;6.748;2023-04-06T09:50:24;18.50;;;10.47;;
11481;SDS011;5797;51.662;6.748;2023-04-06T09:52:54;19.00;;;10.43;;
11481;SDS011;5797;51.662;6.748;2023-04-06T09:55:25;16.70;;;10.57;;
11481;SDS011;5797;51.662;6.748;2023-04-06T09:57:58;32.17;;;11.20;;
11481;SDS011;5797;51.662;6.748;2023-04-06T10:00:32;23.93;;;11.00;;
11481;SDS011;5797;51.662;6.748;2023-04-06T10:03:09;19.03;;;10.93;;
11481;SDS011;5797;51.662;6.748;2023-04-06T10:05:50;19.77;;;10.07;;
11481;SDS011;5797;51.662;6.748;2023-04-06T10:08:22;21.53;;;11.23;;
11481;SDS011;5797;51.662;6.748;2023-04-06T10:10:58;27.40;;;11.87;;
11481;SDS011;5797;51.662;6.748;2023-04-06T10:13:27;22.93;;;11.70;;
11481;SDS011;5797;51.662;6.748;2023-04-06T10:15:56;23.63;;;12.50;;
11481;SDS011;5797;51.662;6.748;2023-04-06T10:18:25;21.07;;;11.43;;
11481;SDS011;5797;51.662;6.748;2023-04-06T10:20:54;21.40;;;11.87;;
11481;SDS011;5797;51.662;6.748;2023-04-06T10:23:26;19.40;;;10.97;;
11481;SDS011;5797;51.662;6.748;2023-04-06T10:26:00;21.63;;;11.23;;
11481;SDS011;5797;51.662;6.748;2023-04-06T10:28:30;28.30;;;11.57;;
11481;SDS011;5797;51.662;6.748;2023-04-06T10:31:00;20.77;;;11.53;;
11481;SDS011;5797;51.662;6.748;2023-04-06T10:33:29;20.30;;;11.07;;
11481;SDS011;5797;51.662;6.748;2023-04-06T10:35:58;24.17;;;11.70;;
11481;SDS011;5797;51.662;6.748;2023-04-06T10:38:37;20.37;;;10.90;;
11481;SDS011;5797;51.662;6.748;2023-04-06T10:41:09;20.13;;;11.13;;
11481;SDS011;5797;51.662;6.748;2023-04-06T10:43:39;21.73;;;11.30;;
11481;SDS011;5797;51.662;6.748;2023-04-06T10:46:09;22.87;;;11.20;;
11481;SDS011;5797;51.662;6.748;2023-04-06T10:48:38;21.37;;;11.80;;
11481;SDS011;5797;51.662;6.748;2023-04-06T10:51:08;20.57;;;11.27;;
11481;SDS011;5797;51.662;6.748;2023-04-06T10:53:38;18.57;;;10.63;;
11481;SDS011;5797;51.662;6.748;2023-04-06T10:56:10;17.97;;;10.80;;
11481;SDS011;5797;51.662;6.748;2023-04-06T10:58:43;25.27;;;11.10;;
11481;SDS011;5797;51.662;6.748;2023-04-06T11:01:14;20.03;;;11.43;;
11481;SDS011;5797;51.662;6.748;2023-04-06T11:03:43;19.67;;;10.47;;
11481;SDS011;5797;51.662;6.748;2023-04-06T11:06:19;18.97;;;9.20;;
11481;SDS011;5797;51.662;6.748;2023-04-06T11:08:48;25.80;;;11.90;;
11481;SDS011;5797;51.662;6.748;2023-04-06T11:11:19;17.27;;;9.80;;
11481;SDS011;5797;51.662;6.748;2023-04-06T11:13:49;18.40;;;10.23;;
11481;SDS011;5797;51.662;6.748;2023-04-06T11:16:18;18.47;;;10.07;;
11481;SDS011;5797;51.662;6.748;2023-04-06T11:18:48;18.03;;;10.13;;
11481;SDS011;5797;51.662;6.748;2023-04-06T11:21:17;18.57;;;10.70;;
11481;SDS011;5797;51.662;6.748;2023-04-06T11:23:46;18.50;;;10.43;;
11481;SDS011;5797;51.662;6.748;2023-04-06T11:26:14;19.30;;;10.13;;
11481;SDS011;5797;51.662;6.748;2023-04-06T11:28:44;16.27;;;10.30;;
11481;SDS011;5797;51.662;6.748;2023-04-06T11:31:13;20.73;;;10.43;;
11481;SDS011;5797;51.662;6.748;2023-04-06T11:33:41;19.40;;;10.50;;
11481;SDS011;5797;51.662;6.748;2023-04-06T11:36:10;17.93;;;9.77;;
11481;SDS011;5797;51.662;6.748;2023-04-06T11:38:40;18.60;;;10.23;;
11481;SDS011;5797;51.662;6.748;2023-04-06T11:41:08;23.03;;;11.07;;
11481;SDS011;5797;51.662;6.748;2023-04-06T11:43:37;20.90;;;9.73;;
11481;SDS011;5797;51.662;6.748;2023-04-06T11:46:07;20.90;;;10.70;;
11481;SDS011;5797;51.662;6.748;2023-04-06T11:48:43;21.33;;;10.90;;
11481;SDS011;5797;51.662;6.748;2023-04-06T11:51:12;26.37;;;11.73;;
11481;SDS011;5797;51.662;6.748;2023-04-06T11:53:43;19.77;;;10.73;;
11481;SDS011;5797;51.662;6.748;2023-04-06T11:56:22;18.67;;;11.07;;
11481;SDS011;5797;51.662;6.748;2023-04-06T11:58:52;18.80;;;10.50;;
11481;SDS011;5797;51.662;6.748;2023-04-06T12:01:22;19.70;;;10.47;;
11481;SDS011;5797;51.662;6.748;2023-04-06T12:03:51;20.67;;;10.87;;
11481;SDS011;5797;51.662;6.748;2023-04-06T12:06:20;22.00;;;11.13;;
11481;SDS011;5797;51.662;6.748;2023-04-06T12:08:49;19.70;;;10.47;;
11481;SDS011;5797;51.662;6.748;2023-04-06T12:11:18;17.93;;;9.60;;
11481;SDS011;5797;51.662;6.748;2023-04-06T12:13:47;20.83;;;11.27;;
11481;SDS011;5797;51.662;6.748;2023-04-06T12:16:16;20.77;;;11.57;;
11481;SDS011;5797;51.662;6.748;2023-04-06T12:18:47;20.33;;;11.17;;
11481;SDS011;5797;51.662;6.748;2023-04-06T12:21:15;18.27;;;10.23;;
11481;SDS011;5797;51.662;6.748;2023-04-06T12:23:44;21.73;;;11.83;;
11481;SDS011;5797;51.662;6.748;2023-04-06T12:26:12;22.47;;;11.80;;
11481;SDS011;5797;51.662;6.748;2023-04-06T12:28:41;18.03;;;10.37;;
11481;SDS011;5797;51.662;6.748;2023-04-06T12:31:14;25.87;;;11.73;;
11481;SDS011;5797;51.662;6.748;2023-04-06T12:33:43;21.07;;;11.50;;
11481;SDS011;5797;51.662;6.748;2023-04-06T12:36:15;22.23;;;10.73;;
11481;SDS011;5797;51.662;6.748;2023-04-06T12:38:46;18.80;;;10.73;;
11481;SDS011;5797;51.662;6.748;2023-04-06T12:41:15;18.70;;;10.27;;
11481;SDS011;5797;51.662;6.748;2023-04-06T12:43:43;18.30;;;9.57;;
11481;SDS011;5797;51.662;6.748;2023-04-06T12:46:12;21.37;;;10.60;;
11481;SDS011;5797;51.662;6.748;2023-04-06T12:48:41;21.90;;;10.57;;
11481;SDS011;5797;51.662;6.748;2023-04-06T12:51:09;21.10;;;10.50;;
11481;SDS011;5797;51.662;6.748;2023-04-06T12:53:39;20.23;;;10.47;;
11481;SDS011;5797;51.662;6.748;2023-04-06T12:56:11;23.63;;;10.83;;
11481;SDS011;5797;51.662;6.748;2023-04-06T12:58:41;15.87;;;8.60;;
11481;SDS011;5797;51.662;6.748;2023-04-06T13:01:10;19.37;;;10.00;;
11481;SDS011;5797;51.662;6.748;2023-04-06T13:03:40;18.37;;;9.90;;
11481;SDS011;5797;51.662;6.748;2023-04-06T13:06:09;16.33;;;9.87;;
11481;SDS011;5797;51.662;6.748;2023-04-06T13:08:39;18.07;;;10.77;;
11481;SDS011;5797;51.662;6.748;2023-04-06T13:11:10;18.97;;;9.67;;
11481;SDS011;5797;51.662;6.748;2023-04-06T13:13:39;16.13;;;8.87;;
11481;SDS011;5797;51.662;6.748;2023-04-06T13:16:08;13.87;;;8.10;;
11481;SDS011;5797;51.662;6.748;2023-04-06T13:18:37;14.77;;;8.40;;
11481;SDS011;5797;51.662;6.748;2023-04-06T13:21:06;14.27;;;8.40;;
11481;SDS011;5797;51.662;6.748;2023-04-06T13:23:35;13.07;;;7.53;;
11481;SDS011;5797;51.662;6.748;2023-04-06T13:26:05;12.63;;;7.53;;
11481;SDS011;5797;51.662;6.748;2023-04-06T13:28:34;11.57;;;7.30;;
11481;SDS011;5797;51.662;6.748;2023-04-06T13:31:04;13.77;;;7.43;;
11481;SDS011;5797;51.662;6.748;2023-04-06T13:33:33;13.40;;;7.43;;
11481;SDS011;5797;51.662;6.748;2023-04-06T13:36:02;14.13;;;7.60;;
11481;SDS011;5797;51.662;6.748;2023-04-06T13:38:31;12.90;;;7.17;;
11481;SDS011;5797;51.662;6.748;2023-04-06T13:41:00;10.87;;;6.67;;
11481;SDS011;5797;51.662;6.748;2023-04-06T13:43:30;9.57;;;6.20;;
11481;SDS011;5797;51.662;6.748;2023-04-06T13:45:58;10.47;;;6.63;;
11481;SDS011;5797;51.662;6.748;2023-04-06T13:48:28;10.07;;;6.33;;
11481;SDS011;5797;51.662;6.748;2023-04-06T13:50:56;11.27;;;5.80;;
11481;SDS011;5797;51.662;6.748;2023-04-06T13:53:25;9.70;;;6.20;;
11481;SDS011;5797;51.662;6.748;2023-04-06T13:55:54;11.13;;;5.80;;
11481;SDS011;5797;51.662;6.748;2023-04-06T13:58:22;11.00;;;5.93;;
11481;SDS011;5797;51.662;6.748;2023-04-06T14:00:52;9.63;;;5.23;;
11481;SDS011;5797;51.662;6.748;2023-04-06T14:03:21;10.53;;;5.30;;
11481;SDS011;5797;51.662;6.748;2023-04-06T14:05:50;11.57;;;5.37;;
11481;SDS011;5797;51.662;6.748;2023-04-06T14:08:18;8.93;;;4.97;;
11481;SDS011;5797;51.662;6.748;2023-04-06T14:10:47;7.10;;;5.00;;
11481;SDS011;5797;51.662;6.748;2023-04-06T14:13:16;13.23;;;5.23;;
11481;SDS011;5797;51.662;6.748;2023-04-06T14:15:45;7.90;;;5.10;;
11481;SDS011;5797;51.662;6.748;2023-04-06T14:18:15;8.20;;;5.60;;
11481;SDS011;5797;51.662;6.748;2023-04-06T14:20:43;10.27;;;5.60;;
11481;SDS011;5797;51.662;6.748;2023-04-06T14:23:12;9.07;;;5.90;;
11481;SDS011;5797;51.662;6.748;2023-04-06T14:25:40;12.17;;;6.17;;
11481;SDS011;5797;51.662;6.748;2023-04-06T14:28:09;11.93;;;5.87;;
11481;SDS011;5797;51.662;6.748;2023-04-06T14:30:37;9.63;;;6.10;;
11481;SDS011;5797;51.662;6.748;2023-04-06T14:33:06;10.03;;;5.83;;
11481;SDS011;5797;51.662;6.748;2023-04-06T14:35:38;9.63;;;6.40;;
11481;SDS011;5797;51.662;6.748;2023-04-06T14:38:07;9.63;;;5.80;;
11481;SDS011;5797;51.662;6.748;2023-04-06T14:40:35;12.20;;;5.80;;
11481;SDS011;5797;51.662;6.748;2023-04-06T14:43:04;8.57;;;6.20;;
11481;SDS011;5797;51.662;6.748;2023-04-06T14:45:33;13.47;;;7.13;;
11481;SDS011;5797;51.662;6.748;2023-04-06T14:48:04;10.77;;;6.63;;
11481;SDS011;5797;51.662;6.748;2023-04-06T14:50:34;9.53;;;6.60;;
11481;SDS011;5797;51.662;6.748;2023-04-06T14:53:03;10.83;;;6.63;;
11481;SDS011;5797;51.662;6.748;2023-04-06T14:55:32;12.67;;;6.57;;
11481;SDS011;5797;51.662;6.748;2023-04-06T14:58:01;15.63;;;6.77;;
11481;SDS011;5797;51.662;6.748;2023-04-06T15:00:29;12.50;;;6.87;;
11481;SDS011;5797;51.662;6.748;2023-04-06T15:02:57;10.90;;;6.63;;
11481;SDS011;5797;51.662;6.748;2023-04-06T15:05:26;9.10;;;6.43;;